sensor_id;sensor_type;location;lat;lon;timestamp;temperature;humidity
3308;DHT22;1666;48.898;9.182;2022-09-09T00:00:11;15.80;4.60
3308;DHT22;1666;48.898;9.182;2022-09-09T00:02:44;15.90;4.30
3308;DHT22;1666;48.898;9.182;2022-09-09T00:05:23;15.90;4.50
3308;DHT22;1666;48.898;9.182;2022-09-09T00:07:55;16.00;3.20
3308;DHT22;1666;48.898;9.182;2022-09-09T00:10:30;16.10;1.50
3308;DHT22;1666;48.898;9.182;2022-09-09T00:13:12;16.10;1.00
3308;DHT22;1666;48.898;9.182;2022-09-09T00:15:52;16.10;1.60
3308;DHT22;1666;48.898;9.182;2022-09-09T00:18:27;16.20;1.60
3308;DHT22;1666;48.898;9.182;2022-09-09T00:21:04;16.10;1.30
3308;DHT22;1666;48.898;9.182;2022-09-09T00:23:38;16.00;1.80
3308;DHT22;1666;48.898;9.182;2022-09-09T00:26:13;16.00;1.20
3308;DHT22;1666;48.898;9.182;2022-09-09T00:28:52;16.00;2.50
3308;DHT22;1666;48.898;9.182;2022-09-09T00:31:27;16.00;1.10
3308;DHT22;1666;48.898;9.182;2022-09-09T00:34:00;16.10;1.00
3308;DHT22;1666;48.898;9.182;2022-09-09T00:36:32;16.10;1.00
3308;DHT22;1666;48.898;9.182;2022-09-09T00:39:03;16.00;1.00
3308;DHT22;1666;48.898;9.182;2022-09-09T00:41:42;16.00;1.00
3308;DHT22;1666;48.898;9.182;2022-09-09T00:44:25;16.00;1.20
3308;DHT22;1666;48.898;9.182;2022-09-09T00:47:09;15.90;1.80
3308;DHT22;1666;48.898;9.182;2022-09-09T00:49:49;15.90;1.70
3308;DHT22;1666;48.898;9.182;2022-09-09T00:52:34;15.90;1.00
3308;DHT22;1666;48.898;9.182;2022-09-09T00:55:14;15.90;1.00
3308;DHT22;1666;48.898;9.182;2022-09-09T00:57:46;15.90;1.10
3308;DHT22;1666;48.898;9.182;2022-09-09T01:00:27;15.80;1.90
3308;DHT22;1666;48.898;9.182;2022-09-09T01:03:06;15.90;1.00
3308;DHT22;1666;48.898;9.182;2022-09-09T01:05:43;15.90;1.00
3308;DHT22;1666;48.898;9.182;2022-09-09T01:08:28;16.00;1.00
3308;DHT22;1666;48.898;9.182;2022-09-09T01:11:01;16.00;1.00
3308;DHT22;1666;48.898;9.182;2022-09-09T01:13:34;16.00;1.00
3308;DHT22;1666;48.898;9.182;2022-09-09T01:16:10;16.00;1.00
3308;DHT22;1666;48.898;9.182;2022-09-09T01:18:44;16.00;1.00
3308;DHT22;1666;48.898;9.182;2022-09-09T01:21:19;16.00;1.00
3308;DHT22;1666;48.898;9.182;2022-09-09T01:24:15;16.10;1.00
3308;DHT22;1666;48.898;9.182;2022-09-09T01:26:50;16.10;1.00
3308;DHT22;1666;48.898;9.182;2022-09-09T01:29:21;16.20;1.00
3308;DHT22;1666;48.898;9.182;2022-09-09T01:31:56;16.20;1.00
3308;DHT22;1666;48.898;9.182;2022-09-09T01:34:30;16.20;1.00
3308;DHT22;1666;48.898;9.182;2022-09-09T01:37:03;16.30;1.00
3308;DHT22;1666;48.898;9.182;2022-09-09T01:39:36;16.30;1.00
3308;DHT22;1666;48.898;9.182;2022-09-09T01:42:12;16.20;1.00
3308;DHT22;1666;48.898;9.182;2022-09-09T01:44:43;16.20;1.00
3308;DHT22;1666;48.898;9.182;2022-09-09T01:47:13;16.30;1.00
3308;DHT22;1666;48.898;9.182;2022-09-09T01:49:44;16.20;1.00
3308;DHT22;1666;48.898;9.182;2022-09-09T01:52:14;16.20;1.00
3308;DHT22;1666;48.898;9.182;2022-09-09T01:54:44;16.20;1.00
3308;DHT22;1666;48.898;9.182;2022-09-09T01:57:21;16.30;1.00
3308;DHT22;1666;48.898;9.182;2022-09-09T02:00:00;16.20;1.00
3308;DHT22;1666;48.898;9.182;2022-09-09T02:02:36;16.10;1.00
3308;DHT22;1666;48.898;9.182;2022-09-09T02:05:17;16.20;1.00
3308;DHT22;1666;48.898;9.182;2022-09-09T02:07:52;16.20;1.00
3308;DHT22;1666;48.898;9.182;2022-09-09T02:10:30;16.20;1.00
3308;DHT22;1666;48.898;9.182;2022-09-09T02:13:08;16.20;1.00
3308;DHT22;1666;48.898;9.182;2022-09-09T02:15:43;16.20;1.00
3308;DHT22;1666;48.898;9.182;2022-09-09T02:18:18;16.10;1.00
3308;DHT22;1666;48.898;9.182;2022-09-09T02:20:50;16.00;1.00
3308;DHT22;1666;48.898;9.182;2022-09-09T02:23:21;16.10;1.00
3308;DHT22;1666;48.898;9.182;2022-09-09T02:25:52;16.10;1.00
3308;DHT22;1666;48.898;9.182;2022-09-09T02:28:28;16.10;1.00
3308;DHT22;1666;48.898;9.182;2022-09-09T02:31:00;16.00;1.00
3308;DHT22;1666;48.898;9.182;2022-09-09T02:33:35;15.90;1.00
3308;DHT22;1666;48.898;9.182;2022-09-09T02:36:08;15.90;1.00
3308;DHT22;1666;48.898;9.182;2022-09-09T02:38:42;15.80;1.00
3308;DHT22;1666;48.898;9.182;2022-09-09T02:41:18;15.80;1.00
3308;DHT22;1666;48.898;9.182;2022-09-09T02:43:51;15.80;1.00
3308;DHT22;1666;48.898;9.182;2022-09-09T02:46:39;15.70;1.00
3308;DHT22;1666;48.898;9.182;2022-09-09T02:49:16;15.60;1.00
3308;DHT22;1666;48.898;9.182;2022-09-09T02:51:53;15.60;1.00
3308;DHT22;1666;48.898;9.182;2022-09-09T02:54:28;15.60;1.00
3308;DHT22;1666;48.898;9.182;2022-09-09T02:57:02;15.50;1.60
3308;DHT22;1666;48.898;9.182;2022-09-09T02:59:36;15.50;2.50
3308;DHT22;1666;48.898;9.182;2022-09-09T03:02:06;15.40;2.70
3308;DHT22;1666;48.898;9.182;2022-09-09T03:04:38;15.40;1.80
3308;DHT22;1666;48.898;9.182;2022-09-09T03:07:08;15.40;2.60
3308;DHT22;1666;48.898;9.182;2022-09-09T03:09:38;15.30;2.70
3308;DHT22;1666;48.898;9.182;2022-09-09T03:12:09;15.30;2.40
3308;DHT22;1666;48.898;9.182;2022-09-09T03:14:41;15.30;3.90
3308;DHT22;1666;48.898;9.182;2022-09-09T03:17:12;15.20;3.90
3308;DHT22;1666;48.898;9.182;2022-09-09T03:19:42;15.10;5.20
3308;DHT22;1666;48.898;9.182;2022-09-09T03:22:12;15.10;6.00
3308;DHT22;1666;48.898;9.182;2022-09-09T03:24:42;15.10;5.50
3308;DHT22;1666;48.898;9.182;2022-09-09T03:27:13;15.10;5.20
3308;DHT22;1666;48.898;9.182;2022-09-09T03:29:46;15.10;5.60
3308;DHT22;1666;48.898;9.182;2022-09-09T03:32:18;15.10;5.10
3308;DHT22;1666;48.898;9.182;2022-09-09T03:34:49;15.20;4.60
3308;DHT22;1666;48.898;9.182;2022-09-09T03:37:19;15.20;3.90
3308;DHT22;1666;48.898;9.182;2022-09-09T03:39:49;15.10;4.30
3308;DHT22;1666;48.898;9.182;2022-09-09T03:42:21;15.10;5.10
3308;DHT22;1666;48.898;9.182;2022-09-09T03:44:53;15.20;3.80
3308;DHT22;1666;48.898;9.182;2022-09-09T03:47:24;15.20;3.80
3308;DHT22;1666;48.898;9.182;2022-09-09T03:49:54;15.20;3.80
3308;DHT22;1666;48.898;9.182;2022-09-09T03:52:24;15.20;3.80
3308;DHT22;1666;48.898;9.182;2022-09-09T03:54:54;15.20;3.70
3308;DHT22;1666;48.898;9.182;2022-09-09T03:57:24;15.30;2.60
3308;DHT22;1666;48.898;9.182;2022-09-09T03:59:56;15.20;3.90
3308;DHT22;1666;48.898;9.182;2022-09-09T04:02:28;15.30;3.90
3308;DHT22;1666;48.898;9.182;2022-09-09T04:04:57;15.30;3.90
3308;DHT22;1666;48.898;9.182;2022-09-09T04:07:28;15.40;3.20
3308;DHT22;1666;48.898;9.182;2022-09-09T04:09:57;15.40;2.60
3308;DHT22;1666;48.898;9.182;2022-09-09T04:12:27;15.40;3.70
3308;DHT22;1666;48.898;9.182;2022-09-09T04:15:00;15.40;1.90
3308;DHT22;1666;48.898;9.182;2022-09-09T04:17:30;15.50;2.40
3308;DHT22;1666;48.898;9.182;2022-09-09T04:20:00;15.40;2.40
3308;DHT22;1666;48.898;9.182;2022-09-09T04:22:31;15.50;2.80
3308;DHT22;1666;48.898;9.182;2022-09-09T04:25:01;15.50;2.00
3308;DHT22;1666;48.898;9.182;2022-09-09T04:27:30;15.50;2.20
3308;DHT22;1666;48.898;9.182;2022-09-09T04:30:03;15.40;1.60
3308;DHT22;1666;48.898;9.182;2022-09-09T04:32:33;15.50;1.70
3308;DHT22;1666;48.898;9.182;2022-09-09T04:35:04;15.50;1.50
3308;DHT22;1666;48.898;9.182;2022-09-09T04:37:34;15.60;1.20
3308;DHT22;1666;48.898;9.182;2022-09-09T04:40:04;15.60;1.00
3308;DHT22;1666;48.898;9.182;2022-09-09T04:42:37;15.80;1.00
3308;DHT22;1666;48.898;9.182;2022-09-09T04:45:13;15.90;1.00
3308;DHT22;1666;48.898;9.182;2022-09-09T04:47:43;15.90;1.00
3308;DHT22;1666;48.898;9.182;2022-09-09T04:50:13;15.90;1.00
3308;DHT22;1666;48.898;9.182;2022-09-09T04:52:43;15.90;1.00
3308;DHT22;1666;48.898;9.182;2022-09-09T04:55:13;15.90;1.00
3308;DHT22;1666;48.898;9.182;2022-09-09T04:57:43;15.90;1.00
3308;DHT22;1666;48.898;9.182;2022-09-09T05:00:16;15.80;1.00
3308;DHT22;1666;48.898;9.182;2022-09-09T05:02:46;15.70;1.00
3308;DHT22;1666;48.898;9.182;2022-09-09T05:05:16;15.70;1.00
3308;DHT22;1666;48.898;9.182;2022-09-09T05:07:46;15.70;1.00
3308;DHT22;1666;48.898;9.182;2022-09-09T05:10:16;15.70;1.00
3308;DHT22;1666;48.898;9.182;2022-09-09T05:12:52;15.70;1.00
3308;DHT22;1666;48.898;9.182;2022-09-09T05:15:25;15.60;1.50
3308;DHT22;1666;48.898;9.182;2022-09-09T05:17:57;15.70;1.00
3308;DHT22;1666;48.898;9.182;2022-09-09T05:20:27;16.40;1.00
3308;DHT22;1666;48.898;9.182;2022-09-09T05:22:57;16.30;1.00
3308;DHT22;1666;48.898;9.182;2022-09-09T05:25:27;16.00;1.00
3308;DHT22;1666;48.898;9.182;2022-09-09T05:27:58;15.80;1.00
3308;DHT22;1666;48.898;9.182;2022-09-09T05:30:31;15.90;1.00
3308;DHT22;1666;48.898;9.182;2022-09-09T05:33:00;16.00;1.30
3308;DHT22;1666;48.898;9.182;2022-09-09T05:35:30;16.00;1.00
3308;DHT22;1666;48.898;9.182;2022-09-09T05:38:00;16.00;1.00
3308;DHT22;1666;48.898;9.182;2022-09-09T05:40:30;16.10;1.10
3308;DHT22;1666;48.898;9.182;2022-09-09T05:43:00;16.10;1.00
3308;DHT22;1666;48.898;9.182;2022-09-09T05:45:33;16.20;1.00
3308;DHT22;1666;48.898;9.182;2022-09-09T05:48:03;16.30;1.00
3308;DHT22;1666;48.898;9.182;2022-09-09T05:50:34;16.40;1.00
3308;DHT22;1666;48.898;9.182;2022-09-09T05:53:04;16.40;1.00
3308;DHT22;1666;48.898;9.182;2022-09-09T05:55:34;16.50;1.00
3308;DHT22;1666;48.898;9.182;2022-09-09T05:58:03;16.50;1.00
3308;DHT22;1666;48.898;9.182;2022-09-09T06:00:36;16.60;1.00
3308;DHT22;1666;48.898;9.182;2022-09-09T06:03:06;16.60;1.00
3308;DHT22;1666;48.898;9.182;2022-09-09T06:05:35;16.70;1.00
3308;DHT22;1666;48.898;9.182;2022-09-09T06:08:05;16.80;1.00
3308;DHT22;1666;48.898;9.182;2022-09-09T06:10:35;17.00;1.00
3308;DHT22;1666;48.898;9.182;2022-09-09T06:13:05;16.90;1.00
3308;DHT22;1666;48.898;9.182;2022-09-09T06:15:39;16.90;1.00
3308;DHT22;1666;48.898;9.182;2022-09-09T06:18:09;16.90;1.00
3308;DHT22;1666;48.898;9.182;2022-09-09T06:20:39;16.90;1.00
3308;DHT22;1666;48.898;9.182;2022-09-09T06:23:08;16.90;1.00
3308;DHT22;1666;48.898;9.182;2022-09-09T06:25:39;16.90;1.00
3308;DHT22;1666;48.898;9.182;2022-09-09T06:28:09;17.00;1.00
3308;DHT22;1666;48.898;9.182;2022-09-09T06:30:41;17.10;1.00
3308;DHT22;1666;48.898;9.182;2022-09-09T06:33:11;17.10;1.00
3308;DHT22;1666;48.898;9.182;2022-09-09T06:35:41;17.30;1.00
3308;DHT22;1666;48.898;9.182;2022-09-09T06:38:11;17.40;1.00
3308;DHT22;1666;48.898;9.182;2022-09-09T06:40:41;17.50;1.00
3308;DHT22;1666;48.898;9.182;2022-09-09T06:43:11;17.40;1.00
3308;DHT22;1666;48.898;9.182;2022-09-09T06:45:43;17.40;1.00
3308;DHT22;1666;48.898;9.182;2022-09-09T06:48:13;17.40;1.00
3308;DHT22;1666;48.898;9.182;2022-09-09T06:50:43;17.30;1.00
3308;DHT22;1666;48.898;9.182;2022-09-09T06:53:16;17.60;1.00
3308;DHT22;1666;48.898;9.182;2022-09-09T06:55:46;17.70;1.00
3308;DHT22;1666;48.898;9.182;2022-09-09T06:58:16;17.80;1.00
3308;DHT22;1666;48.898;9.182;2022-09-09T07:00:48;17.80;1.00
3308;DHT22;1666;48.898;9.182;2022-09-09T07:03:19;17.90;1.00
3308;DHT22;1666;48.898;9.182;2022-09-09T07:05:54;18.00;1.00
3308;DHT22;1666;48.898;9.182;2022-09-09T07:08:25;18.00;1.00
3308;DHT22;1666;48.898;9.182;2022-09-09T07:11:01;18.00;1.00
3308;DHT22;1666;48.898;9.182;2022-09-09T07:13:38;18.00;1.00
3308;DHT22;1666;48.898;9.182;2022-09-09T07:16:13;18.30;1.00
3308;DHT22;1666;48.898;9.182;2022-09-09T07:18:43;18.10;1.00
3308;DHT22;1666;48.898;9.182;2022-09-09T07:21:14;18.20;1.00
3308;DHT22;1666;48.898;9.182;2022-09-09T07:23:47;18.40;1.00
3308;DHT22;1666;48.898;9.182;2022-09-09T07:26:18;18.60;1.00
3308;DHT22;1666;48.898;9.182;2022-09-09T07:28:49;18.80;1.00
3308;DHT22;1666;48.898;9.182;2022-09-09T07:31:23;18.80;1.00
3308;DHT22;1666;48.898;9.182;2022-09-09T07:33:53;18.80;1.00
3308;DHT22;1666;48.898;9.182;2022-09-09T07:36:24;18.80;1.00
3308;DHT22;1666;48.898;9.182;2022-09-09T07:39:01;18.90;1.00
3308;DHT22;1666;48.898;9.182;2022-09-09T07:41:33;18.70;1.00
3308;DHT22;1666;48.898;9.182;2022-09-09T07:44:07;18.70;1.00
3308;DHT22;1666;48.898;9.182;2022-09-09T07:46:40;18.70;1.00
3308;DHT22;1666;48.898;9.182;2022-09-09T07:49:12;18.80;1.00
3308;DHT22;1666;48.898;9.182;2022-09-09T07:51:44;18.90;1.00
3308;DHT22;1666;48.898;9.182;2022-09-09T07:54:16;19.00;1.00
3308;DHT22;1666;48.898;9.182;2022-09-09T07:56:47;19.00;1.00
3308;DHT22;1666;48.898;9.182;2022-09-09T07:59:17;19.10;1.00
3308;DHT22;1666;48.898;9.182;2022-09-09T08:01:50;19.40;1.00
3308;DHT22;1666;48.898;9.182;2022-09-09T08:04:23;19.70;1.00
3308;DHT22;1666;48.898;9.182;2022-09-09T08:06:55;19.80;1.00
3308;DHT22;1666;48.898;9.182;2022-09-09T08:09:26;20.10;1.00
3308;DHT22;1666;48.898;9.182;2022-09-09T08:11:59;19.80;1.00
3308;DHT22;1666;48.898;9.182;2022-09-09T08:14:29;19.90;1.00
3308;DHT22;1666;48.898;9.182;2022-09-09T08:17:01;19.90;1.00
3308;DHT22;1666;48.898;9.182;2022-09-09T08:19:31;19.80;1.00
3308;DHT22;1666;48.898;9.182;2022-09-09T08:22:03;20.00;1.00
3308;DHT22;1666;48.898;9.182;2022-09-09T08:24:32;20.10;1.00
3308;DHT22;1666;48.898;9.182;2022-09-09T08:27:03;20.10;1.00
3308;DHT22;1666;48.898;9.182;2022-09-09T08:29:33;20.30;1.00
3308;DHT22;1666;48.898;9.182;2022-09-09T08:32:07;20.60;1.00
3308;DHT22;1666;48.898;9.182;2022-09-09T08:34:37;20.70;1.00
3308;DHT22;1666;48.898;9.182;2022-09-09T08:37:07;21.00;1.00
3308;DHT22;1666;48.898;9.182;2022-09-09T08:39:37;21.20;1.00
3308;DHT22;1666;48.898;9.182;2022-09-09T08:42:21;21.20;1.00
3308;DHT22;1666;48.898;9.182;2022-09-09T08:45:06;21.10;1.00
3308;DHT22;1666;48.898;9.182;2022-09-09T08:47:54;21.30;1.00
3308;DHT22;1666;48.898;9.182;2022-09-09T08:50:26;21.40;1.00
3308;DHT22;1666;48.898;9.182;2022-09-09T08:53:01;21.30;1.00
3308;DHT22;1666;48.898;9.182;2022-09-09T08:55:38;21.50;1.00
3308;DHT22;1666;48.898;9.182;2022-09-09T08:58:14;21.60;1.00
3308;DHT22;1666;48.898;9.182;2022-09-09T09:01:02;21.80;1.00
3308;DHT22;1666;48.898;9.182;2022-09-09T09:03:46;21.70;1.00
3308;DHT22;1666;48.898;9.182;2022-09-09T09:06:26;22.10;1.00
3308;DHT22;1666;48.898;9.182;2022-09-09T09:09:02;21.80;1.00
3308;DHT22;1666;48.898;9.182;2022-09-09T09:11:36;22.10;1.00
3308;DHT22;1666;48.898;9.182;2022-09-09T09:14:10;22.60;1.00
3308;DHT22;1666;48.898;9.182;2022-09-09T09:16:48;22.80;1.00
3308;DHT22;1666;48.898;9.182;2022-09-09T09:19:23;23.00;1.00
3308;DHT22;1666;48.898;9.182;2022-09-09T09:21:58;22.50;1.00
3308;DHT22;1666;48.898;9.182;2022-09-09T09:24:39;21.90;1.00
3308;DHT22;1666;48.898;9.182;2022-09-09T09:27:13;21.20;1.00
3308;DHT22;1666;48.898;9.182;2022-09-09T09:29:44;21.40;1.00
3308;DHT22;1666;48.898;9.182;2022-09-09T09:32:36;21.50;1.00
3308;DHT22;1666;48.898;9.182;2022-09-09T09:35:13;21.80;1.00
3308;DHT22;1666;48.898;9.182;2022-09-09T09:37:43;21.80;1.00
3308;DHT22;1666;48.898;9.182;2022-09-09T09:40:33;21.60;1.00
3308;DHT22;1666;48.898;9.182;2022-09-09T09:43:03;21.60;1.00
3308;DHT22;1666;48.898;9.182;2022-09-09T09:45:41;21.90;1.00
3308;DHT22;1666;48.898;9.182;2022-09-09T09:48:27;22.00;1.00
3308;DHT22;1666;48.898;9.182;2022-09-09T09:51:01;22.30;1.00
3308;DHT22;1666;48.898;9.182;2022-09-09T09:53:35;22.60;1.00
3308;DHT22;1666;48.898;9.182;2022-09-09T09:56:08;22.60;1.00
3308;DHT22;1666;48.898;9.182;2022-09-09T09:58:49;22.80;1.00
3308;DHT22;1666;48.898;9.182;2022-09-09T10:01:22;22.90;1.00
3308;DHT22;1666;48.898;9.182;2022-09-09T10:04:01;22.90;1.00
3308;DHT22;1666;48.898;9.182;2022-09-09T10:06:36;23.00;1.00
3308;DHT22;1666;48.898;9.182;2022-09-09T10:09:21;23.20;1.00
3308;DHT22;1666;48.898;9.182;2022-09-09T10:11:54;23.40;1.00
3308;DHT22;1666;48.898;9.182;2022-09-09T10:14:30;23.20;1.00
3308;DHT22;1666;48.898;9.182;2022-09-09T10:20:10;22.80;1.00
3308;DHT22;1666;48.898;9.182;2022-09-09T10:22:51;23.10;1.00
3308;DHT22;1666;48.898;9.182;2022-09-09T10:25:40;23.10;1.00
3308;DHT22;1666;48.898;9.182;2022-09-09T10:28:28;23.40;1.00
3308;DHT22;1666;48.898;9.182;2022-09-09T10:31:11;23.20;1.00
3308;DHT22;1666;48.898;9.182;2022-09-09T10:33:49;23.50;1.00
3308;DHT22;1666;48.898;9.182;2022-09-09T10:36:21;23.80;1.00
3308;DHT22;1666;48.898;9.182;2022-09-09T10:38:59;24.00;1.00
3308;DHT22;1666;48.898;9.182;2022-09-09T10:41:43;23.60;1.00
3308;DHT22;1666;48.898;9.182;2022-09-09T10:44:25;23.50;1.00
3308;DHT22;1666;48.898;9.182;2022-09-09T10:47:14;22.60;1.00
3308;DHT22;1666;48.898;9.182;2022-09-09T10:50:09;22.00;1.00
3308;DHT22;1666;48.898;9.182;2022-09-09T10:52:50;21.20;1.00
3308;DHT22;1666;48.898;9.182;2022-09-09T10:55:31;21.20;1.00
3308;DHT22;1666;48.898;9.182;2022-09-09T10:58:04;21.30;1.00
3308;DHT22;1666;48.898;9.182;2022-09-09T11:00:38;21.30;1.00
3308;DHT22;1666;48.898;9.182;2022-09-09T11:03:17;21.60;1.00
3308;DHT22;1666;48.898;9.182;2022-09-09T11:05:52;21.10;1.00
3308;DHT22;1666;48.898;9.182;2022-09-09T11:08:26;21.20;1.00
3308;DHT22;1666;48.898;9.182;2022-09-09T11:11:02;21.00;1.00
3308;DHT22;1666;48.898;9.182;2022-09-09T11:13:38;20.90;1.00
3308;DHT22;1666;48.898;9.182;2022-09-09T11:16:22;20.70;1.00
3308;DHT22;1666;48.898;9.182;2022-09-09T11:18:57;20.60;1.00
3308;DHT22;1666;48.898;9.182;2022-09-09T11:21:33;20.30;1.00
3308;DHT22;1666;48.898;9.182;2022-09-09T11:24:09;20.20;1.00
3308;DHT22;1666;48.898;9.182;2022-09-09T11:26:46;19.80;1.00
3308;DHT22;1666;48.898;9.182;2022-09-09T11:29:45;19.30;1.00
3308;DHT22;1666;48.898;9.182;2022-09-09T11:32:37;18.70;1.00
3308;DHT22;1666;48.898;9.182;2022-09-09T11:35:23;18.80;1.00
3308;DHT22;1666;48.898;9.182;2022-09-09T11:38:18;18.60;1.00
3308;DHT22;1666;48.898;9.182;2022-09-09T11:40:56;18.70;1.00
3308;DHT22;1666;48.898;9.182;2022-09-09T11:43:32;18.70;1.00
3308;DHT22;1666;48.898;9.182;2022-09-09T11:46:02;18.50;1.00
3308;DHT22;1666;48.898;9.182;2022-09-09T11:48:35;18.80;1.00
3308;DHT22;1666;48.898;9.182;2022-09-09T11:51:07;19.00;1.00
3308;DHT22;1666;48.898;9.182;2022-09-09T11:53:50;19.20;1.00
3308;DHT22;1666;48.898;9.182;2022-09-09T11:56:25;19.30;1.00
3308;DHT22;1666;48.898;9.182;2022-09-09T11:59:04;19.20;1.00
3308;DHT22;1666;48.898;9.182;2022-09-09T12:01:36;19.20;1.00
3308;DHT22;1666;48.898;9.182;2022-09-09T12:04:15;19.50;1.00
3308;DHT22;1666;48.898;9.182;2022-09-09T12:06:51;19.60;1.00
3308;DHT22;1666;48.898;9.182;2022-09-09T12:09:27;19.60;1.00
3308;DHT22;1666;48.898;9.182;2022-09-09T12:12:25;20.30;1.00
3308;DHT22;1666;48.898;9.182;2022-09-09T12:15:00;20.30;1.00
3308;DHT22;1666;48.898;9.182;2022-09-09T12:17:31;20.60;1.00
3308;DHT22;1666;48.898;9.182;2022-09-09T12:20:13;21.00;1.00
3308;DHT22;1666;48.898;9.182;2022-09-09T12:28:43;21.80;1.00
3308;DHT22;1666;48.898;9.182;2022-09-09T12:31:21;22.00;1.00
3308;DHT22;1666;48.898;9.182;2022-09-09T12:33:53;22.20;1.00
3308;DHT22;1666;48.898;9.182;2022-09-09T12:36:27;22.10;1.00
3308;DHT22;1666;48.898;9.182;2022-09-09T12:38:59;21.80;1.00
3308;DHT22;1666;48.898;9.182;2022-09-09T12:41:39;22.10;1.00
3308;DHT22;1666;48.898;9.182;2022-09-09T12:44:10;22.20;1.00
3308;DHT22;1666;48.898;9.182;2022-09-09T12:46:44;22.60;1.00
3308;DHT22;1666;48.898;9.182;2022-09-09T12:49:27;22.40;1.00
3308;DHT22;1666;48.898;9.182;2022-09-09T12:52:03;22.50;1.00
3308;DHT22;1666;48.898;9.182;2022-09-09T12:54:35;22.20;1.00
3308;DHT22;1666;48.898;9.182;2022-09-09T12:57:11;22.20;1.00
3308;DHT22;1666;48.898;9.182;2022-09-09T12:59:43;22.10;1.00
3308;DHT22;1666;48.898;9.182;2022-09-09T13:02:22;22.50;1.00
3308;DHT22;1666;48.898;9.182;2022-09-09T13:04:52;22.30;1.00
3308;DHT22;1666;48.898;9.182;2022-09-09T13:07:22;22.20;1.00
3308;DHT22;1666;48.898;9.182;2022-09-09T13:09:53;22.30;1.00
3308;DHT22;1666;48.898;9.182;2022-09-09T13:12:23;22.40;1.00
3308;DHT22;1666;48.898;9.182;2022-09-09T13:14:55;22.60;1.00
3308;DHT22;1666;48.898;9.182;2022-09-09T13:17:28;22.60;1.00
3308;DHT22;1666;48.898;9.182;2022-09-09T13:19:58;22.60;1.00
3308;DHT22;1666;48.898;9.182;2022-09-09T13:22:31;22.80;1.00
3308;DHT22;1666;48.898;9.182;2022-09-09T13:25:13;23.10;1.00
3308;DHT22;1666;48.898;9.182;2022-09-09T13:27:53;23.00;1.00
3308;DHT22;1666;48.898;9.182;2022-09-09T13:30:28;22.90;1.00
3308;DHT22;1666;48.898;9.182;2022-09-09T13:33:18;23.50;1.00
3308;DHT22;1666;48.898;9.182;2022-09-09T13:35:52;23.30;1.00
3308;DHT22;1666;48.898;9.182;2022-09-09T13:38:23;23.60;1.00
3308;DHT22;1666;48.898;9.182;2022-09-09T13:40:57;23.40;1.00
3308;DHT22;1666;48.898;9.182;2022-09-09T13:43:30;23.50;1.00
3308;DHT22;1666;48.898;9.182;2022-09-09T13:46:02;23.40;1.00
3308;DHT22;1666;48.898;9.182;2022-09-09T13:48:35;23.00;1.00
3308;DHT22;1666;48.898;9.182;2022-09-09T13:51:21;23.10;1.00
3308;DHT22;1666;48.898;9.182;2022-09-09T13:53:55;23.30;1.00
3308;DHT22;1666;48.898;9.182;2022-09-09T13:56:26;23.00;1.00
3308;DHT22;1666;48.898;9.182;2022-09-09T13:58:55;23.10;1.00
3308;DHT22;1666;48.898;9.182;2022-09-09T14:01:25;23.50;1.00
3308;DHT22;1666;48.898;9.182;2022-09-09T14:03:58;23.70;1.00
3308;DHT22;1666;48.898;9.182;2022-09-09T14:06:29;23.10;1.00
3308;DHT22;1666;48.898;9.182;2022-09-09T14:08:59;23.10;1.00
3308;DHT22;1666;48.898;9.182;2022-09-09T14:11:29;22.90;1.00
3308;DHT22;1666;48.898;9.182;2022-09-09T14:13:58;22.70;1.00
3308;DHT22;1666;48.898;9.182;2022-09-09T14:16:29;22.60;1.00
3308;DHT22;1666;48.898;9.182;2022-09-09T14:19:01;22.70;1.00
3308;DHT22;1666;48.898;9.182;2022-09-09T14:21:31;22.80;1.00
3308;DHT22;1666;48.898;9.182;2022-09-09T14:24:01;22.60;1.00
3308;DHT22;1666;48.898;9.182;2022-09-09T14:26:31;22.50;1.00
3308;DHT22;1666;48.898;9.182;2022-09-09T14:29:01;22.60;1.00
3308;DHT22;1666;48.898;9.182;2022-09-09T14:31:31;23.10;1.00
3308;DHT22;1666;48.898;9.182;2022-09-09T14:34:03;23.20;1.00
3308;DHT22;1666;48.898;9.182;2022-09-09T14:36:33;23.30;1.00
3308;DHT22;1666;48.898;9.182;2022-09-09T14:39:03;22.90;1.00
3308;DHT22;1666;48.898;9.182;2022-09-09T14:41:33;22.70;1.00
3308;DHT22;1666;48.898;9.182;2022-09-09T14:44:03;22.90;1.00
3308;DHT22;1666;48.898;9.182;2022-09-09T14:46:33;23.10;1.00
3308;DHT22;1666;48.898;9.182;2022-09-09T14:49:05;23.00;1.00
3308;DHT22;1666;48.898;9.182;2022-09-09T14:51:35;22.90;1.00
3308;DHT22;1666;48.898;9.182;2022-09-09T14:54:05;22.70;1.00
3308;DHT22;1666;48.898;9.182;2022-09-09T14:56:35;22.80;1.00
3308;DHT22;1666;48.898;9.182;2022-09-09T14:59:04;22.40;1.00
3308;DHT22;1666;48.898;9.182;2022-09-09T15:01:34;22.30;1.00
3308;DHT22;1666;48.898;9.182;2022-09-09T15:04:07;22.10;1.00
3308;DHT22;1666;48.898;9.182;2022-09-09T15:06:37;22.00;1.00
3308;DHT22;1666;48.898;9.182;2022-09-09T15:09:09;22.00;1.00
3308;DHT22;1666;48.898;9.182;2022-09-09T15:11:39;22.00;1.00
3308;DHT22;1666;48.898;9.182;2022-09-09T15:14:09;22.00;1.00
3308;DHT22;1666;48.898;9.182;2022-09-09T15:16:39;21.80;1.00
3308;DHT22;1666;48.898;9.182;2022-09-09T15:19:12;21.90;1.00
3308;DHT22;1666;48.898;9.182;2022-09-09T15:21:42;21.70;1.00
3308;DHT22;1666;48.898;9.182;2022-09-09T15:24:11;21.50;1.00
3308;DHT22;1666;48.898;9.182;2022-09-09T15:26:42;21.70;1.00
3308;DHT22;1666;48.898;9.182;2022-09-09T15:29:12;21.50;1.00
3308;DHT22;1666;48.898;9.182;2022-09-09T15:31:42;21.60;1.00
3308;DHT22;1666;48.898;9.182;2022-09-09T15:34:15;21.50;1.00
3308;DHT22;1666;48.898;9.182;2022-09-09T15:36:45;21.80;1.00
3308;DHT22;1666;48.898;9.182;2022-09-09T15:39:17;21.90;1.00
3308;DHT22;1666;48.898;9.182;2022-09-09T15:41:48;21.90;1.00
3308;DHT22;1666;48.898;9.182;2022-09-09T15:44:18;21.90;1.00
3308;DHT22;1666;48.898;9.182;2022-09-09T15:46:51;21.90;1.00
3308;DHT22;1666;48.898;9.182;2022-09-09T15:49:25;21.80;1.00
3308;DHT22;1666;48.898;9.182;2022-09-09T15:51:56;21.60;1.00
3308;DHT22;1666;48.898;9.182;2022-09-09T15:54:32;21.40;1.00
3308;DHT22;1666;48.898;9.182;2022-09-09T15:57:06;21.40;1.00
3308;DHT22;1666;48.898;9.182;2022-09-09T15:59:36;21.30;1.00
3308;DHT22;1666;48.898;9.182;2022-09-09T16:02:07;21.10;1.00
3308;DHT22;1666;48.898;9.182;2022-09-09T16:04:39;21.00;1.00
3308;DHT22;1666;48.898;9.182;2022-09-09T16:07:09;20.90;1.00
3308;DHT22;1666;48.898;9.182;2022-09-09T16:09:40;20.80;1.00
3308;DHT22;1666;48.898;9.182;2022-09-09T16:12:10;20.90;1.00
3308;DHT22;1666;48.898;9.182;2022-09-09T16:14:41;20.80;1.00
3308;DHT22;1666;48.898;9.182;2022-09-09T16:17:12;20.70;1.00
3308;DHT22;1666;48.898;9.182;2022-09-09T16:19:45;20.70;1.00
3308;DHT22;1666;48.898;9.182;2022-09-09T16:22:15;20.70;1.00
3308;DHT22;1666;48.898;9.182;2022-09-09T16:24:45;20.50;1.00
3308;DHT22;1666;48.898;9.182;2022-09-09T16:27:14;19.40;1.00
3308;DHT22;1666;48.898;9.182;2022-09-09T16:29:45;18.90;1.00
3308;DHT22;1666;48.898;9.182;2022-09-09T16:32:16;18.70;1.00
3308;DHT22;1666;48.898;9.182;2022-09-09T16:34:48;18.20;1.00
3308;DHT22;1666;48.898;9.182;2022-09-09T16:37:18;18.10;1.00
3308;DHT22;1666;48.898;9.182;2022-09-09T16:39:48;17.80;1.00
3308;DHT22;1666;48.898;9.182;2022-09-09T16:42:18;17.30;1.00
3308;DHT22;1666;48.898;9.182;2022-09-09T16:44:48;17.10;1.00
3308;DHT22;1666;48.898;9.182;2022-09-09T16:47:18;17.00;1.00
3308;DHT22;1666;48.898;9.182;2022-09-09T16:49:50;16.80;1.00
3308;DHT22;1666;48.898;9.182;2022-09-09T16:52:20;16.80;1.00
3308;DHT22;1666;48.898;9.182;2022-09-09T16:54:50;16.60;1.00
3308;DHT22;1666;48.898;9.182;2022-09-09T16:57:20;16.50;1.00
3308;DHT22;1666;48.898;9.182;2022-09-09T16:59:50;16.50;1.00
3308;DHT22;1666;48.898;9.182;2022-09-09T17:02:22;16.30;1.00
3308;DHT22;1666;48.898;9.182;2022-09-09T17:04:55;16.20;1.00
3308;DHT22;1666;48.898;9.182;2022-09-09T17:07:25;16.30;1.00